Time;durP1;ratioP1;P1;durP2;ratioP2;P2;SDS_P1;SDS_P2;PMS_P1;PMS_P2;Temp;Humidity;BMP_temperature;BMP_pressure;BME280_temperature;BME280_humidity;BME280_pressure;Samples;Min_cycle;Max_cycle;Signal;HPM_P1;HPM_P2
2024/02/12 00:00:57;;;;;;;2.45;1.30;;;;;;;4.09;78.76;98323.69;4987382;28;20137;-45
2024/02/12 00:03:24;;;;;;;3.75;1.10;;;;;;;4.07;78.68;98328.00;4985399;28;20052;-46
2024/02/12 00:05:51;;;;;;;7.35;0.95;;;;;;;4.05;78.96;98327.13;4985399;28;20459;-48
2024/02/12 00:08:18;;;;;;;2.50;1.30;;;;;;;4.02;78.87;98324.56;4983666;28;20058;-45
2024/02/12 00:10:45;;;;;;;2.80;1.25;;;;;;;4.01;79.27;98324.59;4986638;28;20046;-48
2024/02/12 00:13:14;;;;;;;2.40;1.17;;;;;;;3.99;79.20;98329.72;4980499;28;20042;-44
2024/02/12 00:15:41;;;;;;;3.40;1.00;;;;;;;3.96;79.29;98337.41;4987906;28;20062;-47
2024/02/12 00:18:08;;;;;;;3.58;0.98;;;;;;;3.93;79.40;98333.16;4985907;28;20049;-45
2024/02/12 00:20:36;;;;;;;2.35;1.02;;;;;;;3.91;79.14;98334.00;4988449;28;20050;-47
2024/02/12 00:23:03;;;;;;;2.90;0.98;;;;;;;3.88;79.11;98345.13;4984285;28;20077;-46
2024/02/12 00:25:33;;;;;;;3.42;1.20;;;;;;;3.80;79.44;98336.59;4987301;28;20753;-45
2024/02/12 00:28:00;;;;;;;5.03;1.40;;;;;;;3.82;79.30;98340.84;4982957;28;20058;-45
2024/02/12 00:30:26;;;;;;;4.70;1.33;;;;;;;3.80;79.39;98346.84;4988573;28;20053;-47
2024/02/12 00:32:54;;;;;;;4.20;0.98;;;;;;;3.76;79.21;98350.28;4981537;28;20050;-46
2024/02/12 00:35:25;;;;;;;2.20;0.85;;;;;;;3.74;78.96;98347.72;4988768;28;20054;-45
2024/02/12 00:37:55;;;;;;;3.25;1.48;;;;;;;3.71;79.48;98357.97;4980996;28;21181;-45
2024/02/12 00:40:22;;;;;;;3.88;0.93;;;;;;;3.70;79.38;98353.69;4983632;28;20055;-46
2024/02/12 00:42:49;;;;;;;1.83;1.00;;;;;;;3.70;79.38;98356.25;4984213;28;21199;-45
2024/02/12 00:45:17;;;;;;;3.80;1.30;;;;;;;3.69;79.98;98354.56;4981329;28;20059;-45
2024/02/12 00:47:44;;;;;;;2.80;0.93;;;;;;;3.67;79.59;98356.25;4980389;28;20806;-47
2024/02/12 00:50:11;;;;;;;1.70;1.17;;;;;;;3.67;79.52;98356.25;4982498;28;20100;-45
2024/02/12 00:52:38;;;;;;;2.42;0.98;;;;;;;3.66;79.38;98359.69;4982955;28;20499;-44
2024/02/12 00:55:07;;;;;;;2.25;1.00;;;;;;;3.64;79.16;98356.28;4984566;28;20050;-44
2024/02/12 00:57:34;;;;;;;2.17;0.90;;;;;;;3.62;79.91;98363.13;4984497;28;20060;-45
2024/02/12 01:00:03;;;;;;;2.42;1.15;;;;;;;3.60;79.45;98355.44;4970168;28;20069;-43
2024/02/12 01:02:30;;;;;;;3.58;1.23;;;;;;;3.58;79.75;98367.41;4987820;28;20081;-44
2024/02/12 01:04:59;;;;;;;1.88;1.02;;;;;;;3.55;79.60;98363.09;4986292;28;20047;-46
2024/02/12 01:07:27;;;;;;;2.92;1.00;;;;;;;3.56;79.38;98369.97;4984250;28;20046;-46
2024/02/12 01:09:54;;;;;;;6.65;1.40;;;;;;;3.53;79.48;98369.97;4985976;28;20054;-47
2024/02/12 01:12:23;;;;;;;2.58;1.15;;;;;;;3.51;79.74;98361.41;4987123;28;20350;-46
2024/02/12 01:14:51;;;;;;;3.20;0.93;;;;;;;3.51;79.57;98366.53;4985301;28;20061;-48
2024/02/12 01:17:17;;;;;;;1.23;0.70;;;;;;;3.50;79.59;98375.06;4987013;28;20050;-45
2024/02/12 01:19:45;;;;;;;2.90;0.90;;;;;;;3.50;79.57;98377.63;4992044;28;20116;-46
2024/02/12 01:22:12;;;;;;;2.78;1.02;;;;;;;3.50;79.75;98372.50;4992322;28;20058;-45
2024/02/12 01:24:39;;;;;;;6.10;1.38;;;;;;;3.50;79.50;98376.78;4990036;28;20077;-48
2024/02/12 01:27:06;;;;;;;3.95;0.70;;;;;;;3.48;79.69;98381.91;4988890;28;20046;-45
2024/02/12 01:29:34;;;;;;;5.68;2.25;;;;;;;3.49;80.02;98378.50;4994999;28;20053;-46
2024/02/12 01:32:01;;;;;;;3.22;1.42;;;;;;;3.49;79.96;98378.50;4991740;28;20057;-44
2024/02/12 01:34:28;;;;;;;5.47;1.67;;;;;;;3.48;80.17;98381.91;4990866;28;20407;-47
2024/02/12 01:36:55;;;;;;;3.40;1.83;;;;;;;3.49;80.13;98386.19;4986592;28;20082;-47
2024/02/12 01:39:22;;;;;;;3.30;1.55;;;;;;;3.48;80.31;98387.03;4986422;28;20641;-46
2024/02/12 01:41:49;;;;;;;2.10;1.15;;;;;;;3.49;80.27;98386.19;4986282;28;20447;-44
2024/02/12 01:44:15;;;;;;;5.05;1.10;;;;;;;3.50;79.95;98385.31;4987296;28;20054;-46
2024/02/12 01:46:42;;;;;;;2.63;1.00;;;;;;;3.48;80.49;98389.59;4987174;28;20046;-45
2024/02/12 01:49:10;;;;;;;6.25;1.48;;;;;;;3.48;80.07;98389.59;4982385;28;20060;-49
2024/02/12 01:51:37;;;;;;;6.75;2.28;;;;;;;3.46;80.25;98383.59;4986264;28;20085;-46
2024/02/12 01:54:07;;;;;;;4.45;0.98;;;;;;;3.48;80.41;98397.28;4986848;28;20057;-44
2024/02/12 01:56:35;;;;;;;8.20;1.50;;;;;;;3.45;80.07;98405.78;4984357;28;20603;-45
2024/02/12 01:59:06;;;;;;;1.48;0.93;;;;;;;3.45;80.09;98402.38;4990709;28;20150;-47
2024/02/12 02:01:33;;;;;;;4.20;2.33;;;;;;;3.45;80.23;98410.91;4990664;28;20054;-44
2024/02/12 02:04:01;;;;;;;1.80;1.20;;;;;;;3.44;80.30;98411.75;4985214;28;20444;-45
2024/02/12 02:06:29;;;;;;;1.70;0.93;;;;;;;3.41;80.18;98411.75;4984236;28;20041;-44
2024/02/12 02:08:58;;;;;;;1.52;0.93;;;;;;;3.42;80.25;98402.38;4989110;28;20703;-45
2024/02/12 02:11:26;;;;;;;3.75;1.58;;;;;;;3.43;80.48;98414.31;4986409;28;20049;-50
2024/02/12 02:13:54;;;;;;;3.88;0.98;;;;;;;3.42;80.29;98413.50;4978457;28;20474;-46
2024/02/12 02:16:21;;;;;;;3.35;1.25;;;;;;;3.43;80.32;98416.88;4986368;28;20393;-45
2024/02/12 02:18:50;;;;;;;1.85;1.00;;;;;;;3.39;80.77;98418.59;4989506;28;20050;-45
2024/02/12 02:21:18;;;;;;;2.83;1.63;;;;;;;3.43;80.91;98420.31;4985805;28;20073;-45
2024/02/12 02:23:45;;;;;;;5.18;1.80;;;;;;;3.39;80.52;98420.28;4990679;28;20049;-45
2024/02/12 02:26:12;;;;;;;4.65;1.67;;;;;;;3.41;80.53;98413.47;4984140;28;20057;-45
2024/02/12 02:28:39;;;;;;;3.45;1.20;;;;;;;3.40;80.42;98407.50;4993665;28;20046;-44
2024/02/12 02:31:06;;;;;;;1.65;0.80;;;;;;;3.36;80.90;98413.47;4989756;28;20058;-46
2024/02/12 02:33:36;;;;;;;2.78;0.90;;;;;;;3.38;80.96;98416.03;4989861;28;20045;-46
2024/02/12 02:36:03;;;;;;;2.92;1.00;;;;;;;3.36;80.50;98418.59;4981199;28;20124;-49
2024/02/12 02:38:31;;;;;;;4.30;1.65;;;;;;;3.34;80.81;98416.03;4984399;28;20078;-46
2024/02/12 02:40:58;;;;;;;5.13;1.27;;;;;;;3.33;81.03;98419.44;4983857;28;20060;-45
2024/02/12 02:43:25;;;;;;;2.63;1.88;;;;;;;3.33;80.88;98423.72;4982037;28;20509;-43
2024/02/12 02:45:52;;;;;;;3.60;2.35;;;;;;;3.29;80.92;98420.31;4987022;28;20050;-45
2024/02/12 02:48:19;;;;;;;2.40;0.80;;;;;;;3.28;80.54;98417.75;4986321;28;20656;-44
2024/02/12 02:50:46;;;;;;;1.98;1.55;;;;;;;3.27;81.15;98422.00;4984989;28;20065;-49
2024/02/12 02:53:13;;;;;;;3.05;1.45;;;;;;;3.26;80.66;98427.97;4981604;28;20458;-48
2024/02/12 02:55:41;;;;;;;3.42;1.50;;;;;;;3.23;81.23;98415.19;4983502;28;20046;-44
2024/02/12 02:58:08;;;;;;;5.15;1.50;;;;;;;3.23;80.65;98422.84;4981483;28;20053;-45
2024/02/12 03:00:36;;;;;;;5.45;1.30;;;;;;;3.21;80.68;98422.84;4986314;28;20054;-45
2024/02/12 03:03:04;;;;;;;2.78;1.83;;;;;;;3.21;81.04;98425.41;4985536;28;20039;-44
2024/02/12 03:05:31;;;;;;;6.22;1.27;;;;;;;3.18;80.94;98422.00;4984573;28;20200;-44
2024/02/12 03:08:02;;;;;;;4.30;1.65;;;;;;;3.15;80.82;98424.56;4982451;28;20048;-45
2024/02/12 03:10:30;;;;;;;6.65;1.58;;;;;;;3.14;80.69;98428.81;4988613;28;20140;-45
2024/02/12 03:12:58;;;;;;;2.70;1.33;;;;;;;3.12;81.05;98425.41;4990101;28;20046;-46
2024/02/12 03:15:26;;;;;;;3.53;1.45;;;;;;;3.08;80.50;98424.53;4986966;28;20149;-46
2024/02/12 03:17:53;;;;;;;4.68;1.55;;;;;;;3.06;81.17;98431.38;4987165;28;20057;-45
2024/02/12 03:20:21;;;;;;;5.03;1.52;;;;;;;3.04;80.97;98429.66;4987328;28;20170;-47
2024/02/12 03:22:48;;;;;;;8.25;1.45;;;;;;;3.04;80.77;98435.59;4989771;28;20050;-44
2024/02/12 03:25:15;;;;;;;1.73;1.10;;;;;;;3.00;81.39;98433.91;4989105;28;20050;-45
2024/02/12 03:27:43;;;;;;;2.50;1.15;;;;;;;3.02;81.38;98439.03;4987832;28;20057;-47
2024/02/12 03:30:11;;;;;;;5.38;1.30;;;;;;;3.00;81.40;98441.56;4991855;28;20045;-45
2024/02/12 03:32:38;;;;;;;8.57;0.75;;;;;;;2.97;81.15;98444.13;4990679;28;20459;-47
2024/02/12 03:35:06;;;;;;;4.15;1.33;;;;;;;2.99;81.14;98447.53;4987807;28;20061;-46
2024/02/12 03:37:32;;;;;;;4.38;0.98;;;;;;;3.00;81.81;98451.81;4992948;28;20054;-46
2024/02/12 03:39:59;;;;;;;4.47;2.53;;;;;;;3.03;81.21;98456.06;4995067;28;20662;-43
2024/02/12 03:42:27;;;;;;;1.83;0.88;;;;;;;3.04;81.12;98456.06;4989315;28;20066;-45
2024/02/12 03:44:55;;;;;;;2.67;2.30;;;;;;;3.04;81.47;98463.75;4984189;28;20056;-44
2024/02/12 03:47:38;;;;;;;2.17;0.68;;;;;;;3.03;81.11;98464.59;4989252;28;20559;-45
2024/02/12 04:01:15;;;;;;;2.70;1.17;;;;;;;3.15;81.48;98476.59;5004183;28;20129;-45
2024/02/12 04:03:43;;;;;;;7.18;1.50;;;;;;;3.19;81.31;98477.44;4993369;28;20085;-46
2024/02/12 04:06:12;;;;;;;6.47;1.23;;;;;;;3.24;81.61;98485.97;4990115;28;20069;-45
2024/02/12 04:08:41;;;;;;;3.33;0.95;;;;;;;3.28;81.64;98487.66;4986301;28;20120;-43
2024/02/12 04:11:09;;;;;;;3.10;1.55;;;;;;;3.30;81.30;98485.97;4991659;28;20054;-48
2024/02/12 04:13:37;;;;;;;2.53;0.75;;;;;;;3.33;82.00;98483.44;5003759;28;20054;-47
2024/02/12 04:16:06;;;;;;;2.80;0.60;;;;;;;3.39;81.62;98486.84;4990017;28;20054;-47
2024/02/12 04:18:33;;;;;;;4.43;1.52;;;;;;;3.40;81.47;98485.97;4994531;28;20050;-44
2024/02/12 04:21:08;;;;;;;3.92;1.90;;;;;;;3.43;81.51;98475.75;4992935;28;23651;-48
2024/02/12 04:23:37;;;;;;;3.38;2.30;;;;;;;3.44;81.70;98482.56;4991097;28;20053;-48
2024/02/12 04:26:08;;;;;;;3.47;1.55;;;;;;;3.46;81.46;98480.88;4992326;28;20141;-46
2024/02/12 04:28:39;;;;;;;5.45;1.17;;;;;;;3.48;80.85;98494.56;4991102;28;20103;-47
2024/02/12 04:31:06;;;;;;;4.53;1.08;;;;;;;3.49;81.17;98485.16;4990211;28;20054;-49
2024/02/12 04:33:33;;;;;;;2.75;1.10;;;;;;;3.51;81.34;98488.56;4992558;28;20590;-49
2024/02/12 04:36:01;;;;;;;2.83;1.52;;;;;;;3.52;81.39;98493.69;4990382;28;20053;-46
2024/02/12 04:38:28;;;;;;;1.15;0.85;;;;;;;3.52;81.11;98501.38;4985768;28;20046;-44
2024/02/12 04:40:58;;;;;;;2.70;0.88;;;;;;;3.53;81.07;98508.19;4983796;28;20138;-45
2024/02/12 04:43:25;;;;;;;;;;;;;;;3.49;81.29;98509.06;4985746;28;20042;-46
2024/02/12 04:45:52;;;;;;;3.65;2.17;;;;;;;3.50;81.15;98508.19;4986749;28;20578;-45
2024/02/12 04:48:21;;;;;;;1.67;0.68;;;;;;;3.48;81.71;98515.03;4986326;28;20053;-45
2024/02/12 04:50:48;;;;;;;2.90;0.90;;;;;;;3.45;81.03;98512.47;4987925;28;20046;-46
2024/02/12 04:53:14;;;;;;;4.55;1.20;;;;;;;3.40;80.89;98509.03;4984781;28;20055;-46
2024/02/12 04:55:41;;;;;;;3.35;1.10;;;;;;;3.37;80.93;98516.72;4983320;28;20384;-46
2024/02/12 04:58:08;;;;;;;2.38;1.23;;;;;;;3.32;80.62;98519.25;4985595;28;20050;-46
2024/02/12 05:00:35;;;;;;;4.80;1.23;;;;;;;3.28;81.40;98517.53;4986677;28;20061;-44
2024/02/12 05:03:03;;;;;;;6.38;1.52;;;;;;;3.25;80.76;98523.50;4984292;28;20539;-47
2024/02/12 05:05:31;;;;;;;2.90;1.88;;;;;;;3.20;81.09;98525.19;4992311;28;20054;-46
2024/02/12 05:08:02;;;;;;;2.50;0.80;;;;;;;3.22;81.62;98538.84;4983611;28;20484;-46
2024/02/12 05:10:30;;;;;;;2.47;1.45;;;;;;;3.24;81.03;98547.38;4990473;28;20054;-44
2024/02/12 05:12:56;;;;;;;5.10;1.15;;;;;;;3.27;81.73;98552.50;4986286;28;20065;-47
2024/02/12 05:15:24;;;;;;;2.17;1.33;;;;;;;3.31;81.44;98549.09;4992381;28;20050;-46
2024/02/12 05:17:54;;;;;;;3.95;0.82;;;;;;;3.36;81.25;98550.81;4992215;28;20399;-46
2024/02/12 05:23:09;;;;;;;6.10;1.35;;;;;;;3.46;81.51;98544.88;5003484;28;20058;-46
2024/02/12 05:25:38;;;;;;;2.85;1.35;;;;;;;3.51;81.60;98555.13;4992644;28;20054;-45
2024/02/12 05:28:05;;;;;;;2.90;1.45;;;;;;;3.53;81.33;98551.72;4993910;28;20549;-45
2024/02/12 05:30:31;;;;;;;3.00;1.17;;;;;;;3.58;81.67;98556.84;4992545;28;20064;-48
2024/02/12 05:32:59;;;;;;;6.80;1.52;;;;;;;3.60;81.70;98561.13;4989630;28;20129;-46
2024/02/12 05:35:26;;;;;;;6.90;0.90;;;;;;;3.62;81.82;98567.94;4993105;28;20061;-48
2024/02/12 05:37:54;;;;;;;9.23;1.40;;;;;;;3.64;81.98;98567.09;4991570;28;20045;-46
2024/02/12 05:40:21;;;;;;;6.47;1.63;;;;;;;3.64;81.54;98561.13;4986914;28;20050;-46
2024/02/12 05:42:48;;;;;;;6.68;1.38;;;;;;;3.67;81.77;98567.09;4991487;28;20060;-45
2024/02/12 05:45:14;;;;;;;5.60;1.23;;;;;;;3.66;81.54;98569.66;4991511;28;20057;-47
2024/02/12 05:47:41;;;;;;;7.28;2.42;;;;;;;3.66;80.75;98569.66;4987016;28;20582;-44
2024/02/12 05:50:09;;;;;;;2.17;1.05;;;;;;;3.64;81.46;98571.38;4988470;28;20807;-47
2024/02/12 05:52:36;;;;;;;3.95;1.42;;;;;;;3.62;81.66;98579.06;4990128;28;20418;-47
2024/02/12 05:55:03;;;;;;;3.90;1.42;;;;;;;3.61;82.07;98577.31;4991596;28;20061;-46
2024/02/12 05:57:29;;;;;;;3.40;1.40;;;;;;;3.60;80.88;98581.59;4991320;28;20053;-47
2024/02/12 05:59:56;;;;;;;8.43;2.03;;;;;;;3.60;80.85;98584.16;4984280;28;20503;-48
2024/02/12 06:02:25;;;;;;;5.93;2.05;;;;;;;3.64;81.34;98586.75;4988474;28;20042;-45
2024/02/12 06:04:52;;;;;;;2.58;1.65;;;;;;;3.62;81.51;98580.75;4984116;28;20053;-44
2024/02/12 06:07:19;;;;;;;5.65;1.10;;;;;;;3.62;81.27;98588.44;4990279;28;20054;-45
2024/02/12 06:09:46;;;;;;;3.55;1.00;;;;;;;3.60;81.32;98591.84;4987891;28;20054;-47
2024/02/12 06:12:12;;;;;;;8.18;1.67;;;;;;;3.62;81.44;98593.56;4990088;28;20050;-47
2024/02/12 06:14:40;;;;;;;4.05;1.33;;;;;;;3.61;80.91;98602.94;4992036;28;20529;-45
2024/02/12 06:17:08;;;;;;;8.68;1.67;;;;;;;3.62;81.21;98603.78;4992532;28;20503;-44
2024/02/12 06:19:35;;;;;;;3.63;2.28;;;;;;;3.62;81.66;98608.91;4988408;28;20416;-47
2024/02/12 06:22:01;;;;;;;5.30;1.23;;;;;;;3.61;81.28;98597.81;4991588;28;20050;-45
2024/02/12 06:24:28;;;;;;;2.35;1.52;;;;;;;3.59;80.87;98609.75;4993212;28;20045;-45
2024/02/12 06:26:55;;;;;;;7.88;1.50;;;;;;;3.58;81.38;98603.78;4989934;28;20050;-46
2024/02/12 06:29:22;;;;;;;4.30;1.50;;;;;;;3.55;81.12;98598.66;4988339;28;20057;-45
2024/02/12 06:31:50;;;;;;;4.93;1.98;;;;;;;3.55;80.84;98588.41;4985727;28;20050;-46
2024/02/12 06:34:16;;;;;;;4.97;2.13;;;;;;;3.54;82.01;98604.63;4991340;28;20058;-45
2024/02/12 06:36:44;;;;;;;6.30;1.67;;;;;;;3.51;81.32;98607.16;4981868;28;20046;-46
2024/02/12 06:39:11;;;;;;;3.88;2.15;;;;;;;3.49;81.37;98616.56;4984081;28;20054;-45
2024/02/12 06:41:42;;;;;;;3.35;1.83;;;;;;;3.46;80.89;98619.13;4985881;28;20050;-43
2024/02/12 06:44:09;;;;;;;4.28;1.92;;;;;;;3.42;81.02;98618.25;4983094;28;20054;-43
2024/02/12 06:46:35;;;;;;;7.38;2.85;;;;;;;3.38;81.17;98620.78;4984545;28;20070;-44
2024/02/12 06:49:03;;;;;;;16.92;8.85;;;;;;;3.34;81.34;98630.16;4982667;28;20076;-44
2024/02/12 06:51:30;;;;;;;14.95;5.82;;;;;;;3.29;81.16;98634.41;4983791;28;20161;-44
2024/02/12 06:53:57;;;;;;;6.05;2.28;;;;;;;3.24;80.70;98631.81;4985186;28;20050;-45
2024/02/12 06:56:24;;;;;;;3.60;2.03;;;;;;;3.19;80.72;98623.28;4981902;28;20145;-45
2024/02/12 06:58:51;;;;;;;5.10;1.95;;;;;;;3.16;81.19;98625.81;4990097;28;20046;-46
2024/02/12 07:01:19;;;;;;;5.28;1.33;;;;;;;3.12;81.58;98631.78;4979792;28;20061;-43
2024/02/12 07:03:46;;;;;;;7.28;1.65;;;;;;;3.09;81.39;98640.28;4974201;28;20050;-43
2024/02/12 07:06:13;;;;;;;6.78;1.90;;;;;;;3.04;81.69;98645.38;4987204;28;20046;-44
2024/02/12 07:08:41;;;;;;;8.55;3.53;;;;;;;3.02;81.46;98654.75;4988671;28;20046;-42
2024/02/12 07:11:14;;;;;;;9.38;4.30;;;;;;;2.99;81.72;98659.00;4986792;28;20061;-45
2024/02/12 07:13:41;;;;;;;4.20;1.60;;;;;;;2.98;81.26;98662.41;4987915;28;20054;-44
2024/02/12 07:16:14;;;;;;;5.93;1.38;;;;;;;2.97;81.38;98665.81;4989936;28;20508;-49
2024/02/12 07:18:41;;;;;;;3.88;1.50;;;;;;;2.93;82.04;98677.72;5000122;28;20050;-43
2024/02/12 07:21:08;;;;;;;6.75;1.77;;;;;;;2.92;82.16;98670.91;4988144;28;20458;-45
2024/02/12 07:23:35;;;;;;;7.68;1.60;;;;;;;2.92;81.55;98673.44;4988737;28;20057;-42
2024/02/12 07:26:01;;;;;;;2.00;1.00;;;;;;;2.91;81.92;98676.88;4983585;28;20050;-41
2024/02/12 07:28:28;;;;;;;5.70;1.58;;;;;;;2.91;82.50;98676.88;4980251;28;20058;-45
2024/02/12 07:30:55;;;;;;;6.20;1.63;;;;;;;2.89;82.22;98679.41;4975356;28;20098;-46
2024/02/12 07:33:22;;;;;;;3.83;1.42;;;;;;;2.90;82.35;98686.22;4978282;28;20053;-42
2024/02/12 07:35:48;;;;;;;3.92;1.52;;;;;;;2.89;82.34;98694.75;4976148;28;20716;-44
2024/02/12 07:38:17;;;;;;;7.63;1.40;;;;;;;2.87;81.89;98695.59;4981689;28;20129;-42
2024/02/12 07:40:45;;;;;;;4.43;1.90;;;;;;;2.86;81.66;98698.97;4980598;28;20146;-43
2024/02/12 07:43:12;;;;;;;4.40;1.30;;;;;;;2.83;81.63;98705.81;4977631;28;20050;-43
2024/02/12 07:45:39;;;;;;;4.75;2.00;;;;;;;2.83;81.99;98716.03;4981132;28;20054;-48
2024/02/12 07:48:06;;;;;;;2.28;1.17;;;;;;;2.80;81.79;98718.56;4982932;28;20046;-45
2024/02/12 07:50:33;;;;;;;2.92;1.77;;;;;;;2.80;81.88;98726.22;4975860;28;20144;-45
2024/02/12 07:52:59;;;;;;;4.22;2.33;;;;;;;2.80;81.23;98730.47;4975801;28;22461;-42
2024/02/12 07:55:27;;;;;;;5.53;1.67;;;;;;;2.79;82.05;98734.75;4976825;28;20046;-44
2024/02/12 07:57:53;;;;;;;6.30;3.22;;;;;;;2.79;81.71;98750.09;4975578;28;20053;-43
2024/02/12 08:00:20;;;;;;;6.18;2.10;;;;;;;2.80;82.14;98756.03;4977406;28;20045;-47
2024/02/12 08:02:47;;;;;;;7.93;2.90;;;;;;;2.82;81.99;98760.34;4976473;28;20719;-41
2024/02/12 08:05:16;;;;;;;7.47;2.67;;;;;;;2.87;81.52;98773.16;4977863;28;20066;-44
2024/02/12 08:07:43;;;;;;;5.55;2.22;;;;;;;2.90;81.46;98772.34;4981585;28;20055;-42
2024/02/12 08:10:27;;;;;;;7.25;4.03;;;;;;;3.02;82.17;98775.00;4988916;28;20654;-45
2024/02/12 08:12:54;;;;;;;7.47;2.28;;;;;;;3.47;82.28;98779.53;4974593;28;20046;-44
2024/02/12 08:15:21;;;;;;;3.53;1.77;;;;;;;3.96;82.33;98785.75;4975593;28;20062;-43
2024/02/12 08:17:48;;;;;;;7.05;1.67;;;;;;;4.41;81.29;98790.13;4976153;28;20057;-44
2024/02/12 08:20:16;;;;;;;7.25;2.15;;;;;;;4.85;81.45;98789.34;4978197;28;20529;-46
2024/02/12 08:22:43;;;;;;;2.20;1.08;;;;;;;5.50;82.05;98795.25;4991205;28;20042;-43
2024/02/12 08:25:10;;;;;;;11.20;4.38;;;;;;;6.37;79.85;98802.66;4976946;28;20057;-46
2024/02/12 08:27:36;;;;;;;8.15;4.15;;;;;;;7.31;79.16;98814.84;4978052;28;20054;-45
2024/02/12 08:30:06;;;;;;;10.13;4.68;;;;;;;8.23;77.93;98821.56;4974753;28;20125;-44
2024/02/12 08:32:33;;;;;;;7.97;2.38;;;;;;;8.98;76.20;98821.41;4981934;28;20054;-46
2024/02/12 08:35:00;;;;;;;5.03;2.20;;;;;;;9.58;74.60;98828.13;4985730;28;20072;-44
2024/02/12 08:37:29;;;;;;;4.18;2.00;;;;;;;10.03;73.84;98833.31;4984761;28;20050;-43
2024/02/12 08:39:57;;;;;;;4.90;2.10;;;;;;;10.35;72.74;98843.91;4986482;28;20054;-44
2024/02/12 08:42:24;;;;;;;8.60;2.95;;;;;;;10.37;71.87;98841.28;4985308;28;20046;-47
2024/02/12 08:44:51;;;;;;;9.18;3.35;;;;;;;10.39;71.67;98845.53;4982690;28;20047;-48
2024/02/12 08:47:20;;;;;;;6.32;2.35;;;;;;;10.72;71.93;98842.28;4985342;28;20133;-45
2024/02/12 08:49:47;;;;;;;5.70;2.78;;;;;;;11.14;71.47;98843.88;4983907;28;20054;-44
2024/02/12 08:52:14;;;;;;;6.78;2.55;;;;;;;11.62;71.77;98849.56;4980646;28;20412;-45
2024/02/12 08:54:42;;;;;;;6.25;2.40;;;;;;;12.04;69.93;98861.44;4983054;28;20116;-43
2024/02/12 08:57:14;;;;;;;5.32;2.25;;;;;;;12.44;69.41;98872.47;4977662;28;20526;-44
2024/02/12 08:59:43;;;;;;;3.97;1.98;;;;;;;12.98;68.00;98876.91;4980817;28;20624;-45
2024/02/12 09:02:10;;;;;;;6.00;2.55;;;;;;;13.52;67.98;98873.50;4984586;28;20121;-46
2024/02/12 09:04:36;;;;;;;3.78;1.92;;;;;;;14.04;66.26;98873.41;4986402;28;20068;-43
2024/02/12 09:07:05;;;;;;;5.75;2.40;;;;;;;14.47;64.54;98875.34;4982933;28;20137;-47
2024/02/12 09:09:32;;;;;;;8.15;3.58;;;;;;;14.87;63.66;98871.25;4984965;28;20503;-46
2024/02/12 09:11:59;;;;;;;7.93;2.25;;;;;;;15.24;61.96;98883.72;4980515;28;20054;-44
2024/02/12 09:14:26;;;;;;;6.45;2.90;;;;;;;15.39;60.73;98885.69;4985191;28;20707;-48
2024/02/12 09:16:53;;;;;;;6.80;2.95;;;;;;;15.60;59.19;98880.47;4984014;28;20158;-48
2024/02/12 09:19:20;;;;;;;5.53;2.53;;;;;;;15.85;58.52;98879.44;4983662;28;20050;-49
2024/02/12 09:21:47;;;;;;;4.25;1.92;;;;;;;15.91;57.30;98884.38;4986589;28;20133;-45
2024/02/12 09:24:14;;;;;;;6.50;2.55;;;;;;;16.29;58.16;98888.00;4986140;28;20046;-48
2024/02/12 09:26:42;;;;;;;4.57;1.92;;;;;;;16.68;57.06;98891.47;4981502;28;20053;-49
2024/02/12 09:29:09;;;;;;;7.85;1.92;;;;;;;16.89;56.42;98897.44;4995877;28;20047;-44
2024/02/12 09:31:36;;;;;;;4.60;1.70;;;;;;;17.04;54.37;98901.13;4981403;28;20057;-48
2024/02/12 09:34:03;;;;;;;6.03;1.90;;;;;;;17.15;53.81;98900.63;4982816;28;20057;-47
2024/02/12 09:36:33;;;;;;;6.60;2.83;;;;;;;17.19;53.05;98910.00;4980095;28;20050;-47
2024/02/12 09:38:59;;;;;;;7.80;3.53;;;;;;;17.44;53.95;98915.81;4982067;28;20424;-47
2024/02/12 09:41:28;;;;;;;6.68;2.85;;;;;;;17.83;54.01;98919.09;4982029;28;20113;-48
2024/02/12 09:43:55;;;;;;;5.97;2.47;;;;;;;17.99;51.43;98924.41;4979278;28;20530;-44
2024/02/12 09:46:22;;;;;;;4.60;1.38;;;;;;;18.18;51.85;98932.22;4979496;28;20062;-46
2024/02/12 09:48:49;;;;;;;6.45;1.40;;;;;;;18.32;51.18;98931.50;4981537;28;20046;-49
2024/02/12 09:51:17;;;;;;;2.65;1.38;;;;;;;18.45;51.45;98936.06;4982782;28;20050;-45
2024/02/12 09:53:44;;;;;;;6.10;2.08;;;;;;;18.67;51.65;98945.41;4978630;28;20092;-47
2024/02/12 09:56:12;;;;;;;3.63;1.73;;;;;;;18.98;51.38;98949.81;4984244;28;20052;-46
2024/02/12 09:58:39;;;;;;;5.93;2.75;;;;;;;19.31;51.12;98960.28;4982372;28;20053;-48
2024/02/12 10:01:05;;;;;;;4.35;2.28;;;;;;;19.36;49.12;98953.03;4983009;28;20053;-46
2024/02/12 10:03:32;;;;;;;6.03;1.55;;;;;;;19.40;48.89;98967.66;4980004;28;20059;-49
2024/02/12 10:05:59;;;;;;;4.32;1.88;;;;;;;19.42;49.00;98968.41;4977689;28;20046;-46
2024/02/12 10:08:27;;;;;;;7.13;3.20;;;;;;;19.44;48.86;98974.44;4983209;28;20077;-47
2024/02/12 10:10:54;;;;;;;4.93;1.98;;;;;;;19.49;48.61;98982.88;4990041;28;20058;-44
2024/02/12 10:13:22;;;;;;;6.75;2.75;;;;;;;19.59;48.26;98979.75;4979116;28;20125;-48
2024/02/12 10:15:51;;;;;;;8.10;2.33;;;;;;;19.64;48.05;98988.19;4995059;28;20141;-50
2024/02/12 10:18:20;;;;;;;12.80;2.53;;;;;;;19.77;48.18;98989.19;4980195;28;20085;-47
2024/02/12 10:20:48;;;;;;;5.07;1.65;;;;;;;19.90;47.41;98998.97;4981883;28;20491;-51
2024/02/12 10:23:19;;;;;;;8.80;2.33;;;;;;;19.92;48.23;98994.47;4982620;28;20042;-45
2024/02/12 10:25:51;;;;;;;8.50;3.38;;;;;;;19.94;46.93;98987.34;4995185;28;20059;-46
2024/02/12 10:28:21;;;;;;;8.85;2.97;;;;;;;19.91;46.56;99000.66;4979371;28;20057;-49
2024/02/12 10:30:48;;;;;;;5.75;2.38;;;;;;;19.63;46.29;98991.78;4983025;28;20127;-48
2024/02/12 10:33:15;;;;;;;6.18;2.72;;;;;;;19.35;45.80;99009.09;4981156;28;20077;-49
2024/02/12 10:35:48;;;;;;;5.13;2.35;;;;;;;19.36;46.05;98997.66;4993181;28;20059;-46
2024/02/12 10:38:16;;;;;;;4.95;1.77;;;;;;;19.41;46.22;99008.75;4978129;28;20104;-48
2024/02/12 10:40:55;;;;;;;6.05;3.90;;;;;;;19.29;43.92;99010.28;4980753;28;20571;-47
2024/02/12 10:43:24;;;;;;;5.07;2.03;;;;;;;19.22;46.12;99009.75;4974878;28;20042;-47
2024/02/12 10:45:53;;;;;;;4.78;2.20;;;;;;;19.10;45.25;99010.44;4981300;28;20046;-46
2024/02/12 10:48:20;;;;;;;5.90;3.10;;;;;;;18.99;45.44;99001.34;4981559;28;20630;-46
2024/02/12 10:50:49;;;;;;;5.85;2.05;;;;;;;19.13;45.74;99016.38;4981643;28;20050;-48
2024/02/12 10:53:17;;;;;;;7.75;2.15;;;;;;;19.14;45.57;99022.47;4976167;28;20054;-48
2024/02/12 10:55:45;;;;;;;5.00;1.73;;;;;;;18.98;44.72;99018.03;4965362;28;20117;-46
2024/02/12 10:58:12;;;;;;;3.78;1.80;;;;;;;18.88;45.62;99037.84;4980859;28;20475;-48
2024/02/12 11:00:40;;;;;;;3.17;1.20;;;;;;;18.77;45.57;99027.06;4976018;28;20066;-45
2024/02/12 11:03:18;;;;;;;4.13;1.27;;;;;;;18.35;44.71;99035.31;4978979;28;20066;-46
2024/02/12 11:05:44;;;;;;;3.30;1.30;;;;;;;17.68;45.49;99036.81;4980597;28;20050;-48
2024/02/12 11:08:15;;;;;;;6.93;1.70;;;;;;;17.03;46.33;99045.06;4981113;28;20058;-47
2024/02/12 11:10:43;;;;;;;4.50;1.30;;;;;;;16.28;46.92;99053.53;4995687;28;20058;-45
2024/02/12 11:13:15;;;;;;;4.57;1.33;;;;;;;15.66;47.26;99047.28;4979415;28;20054;-47
2024/02/12 11:15:50;;;;;;;4.15;1.23;;;;;;;15.03;48.62;99047.94;4976525;28;20050;-47
2024/02/12 11:18:18;;;;;;;7.55;2.35;;;;;;;14.64;49.13;99055.38;4974619;28;20508;-49
2024/02/12 11:20:48;;;;;;;6.07;2.17;;;;;;;14.27;50.32;99059.25;4981597;28;20053;-44
2024/02/12 11:26:00;;;;;;;5.50;1.23;;;;;;;13.78;51.56;99057.34;5051672;27;22072;-49
2024/02/12 11:28:28;;;;;;;2.70;1.25;;;;;;;13.56;52.33;99058.03;5045267;28;20135;-46
2024/02/12 11:30:55;;;;;;;3.55;1.80;;;;;;;13.30;52.73;99067.44;5039654;28;20774;-47
2024/02/12 11:33:26;;;;;;;6.22;1.55;;;;;;;13.00;52.15;99066.63;5038585;28;20052;-46
2024/02/12 11:36:05;;;;;;;10.98;3.55;;;;;;;12.72;53.34;99065.63;5037307;28;21771;-50
2024/02/12 11:38:35;;;;;;;5.38;1.25;;;;;;;12.42;53.23;99062.94;5037020;28;20045;-51
2024/02/12 11:41:05;;;;;;;4.93;1.65;;;;;;;12.17;53.24;99068.78;5040049;28;20049;-50
2024/02/12 11:43:34;;;;;;;3.53;0.98;;;;;;;12.00;53.79;99067.44;5039764;28;20438;-47
2024/02/12 11:46:02;;;;;;;2.80;1.02;;;;;;;11.89;53.08;99075.47;5040013;28;20045;-47
2024/02/12 11:48:29;;;;;;;3.60;0.82;;;;;;;11.74;54.58;99071.50;5035376;28;20049;-48
2024/02/12 11:50:56;;;;;;;2.20;0.85;;;;;;;11.56;53.93;99077.97;5039609;28;20153;-45
2024/02/12 11:53:25;;;;;;;3.45;0.93;;;;;;;11.45;54.75;99085.97;5037512;28;20049;-47
2024/02/12 11:55:52;;;;;;;2.28;0.60;;;;;;;11.31;54.57;99084.53;5039147;28;20049;-47
2024/02/12 11:58:19;;;;;;;2.53;0.80;;;;;;;11.18;55.23;99083.09;5037126;28;20049;-48